Port Hardy, Canada
Current Conditions -  °F | °C
As of 2:00 AM on Thursday 27 Nov 2014 (Local Time) from CYZT Reporting Station
Light Rain Light Rain  
Wind Chill: 46°   Ceiling: 3300
Heat Index: 48°   Visibility: 8mi
Dew Point: 48°   Wind: 5mph
Humidity: 100%   Direction: 130°SE
Pressure: 29.58"   Gusts: NA
Location:  50.72°N, 127.5°W
Report Text: CYZT 271000Z 13004KT 8SM -RA FEW005 SCT020 OVC033 09/09 A2958 RMK SF1SC2SC5 SLP018
Loading
Personal Weather Stations






























Interactive Weather Map New forecast layout! Learn more

10-Day Weather Forecast

Advertisements
Track Severe Weather on mobile